Eaton, New York
Current Conditions -  °F | °C
As of 2:53 AM on Saturday 20 Dec 2014 (Local Time) from KRME Reporting Station
Overcast Overcast  
Wind Chill: 21°   Ceiling: 1800
Heat Index: 21°   Visibility: 10mi
Dew Point: 16°   Wind: 3mph
Humidity: 81%   Direction: 70°ENE
Pressure: 30.25"   Gusts: NA
Location:  42.85°N, 75.61°W
Report Text: KRME 200753Z AUTO 07003KT 10SM OVC018 M06/M09 A3025 RMK AO2 SLP251 T10611089
Loading
Personal Weather Stations






























Interactive Weather Map New forecast layout! Learn more

10-Day Weather Forecast

Advertisements
Track Severe Weather on mobile